Time;durP1;ratioP1;P1;durP2;ratioP2;P2;SDS_P1;SDS_P2;PMS_P1;PMS_P2;Temp;Humidity;BMP_temperature;BMP_pressure;BME280_temperature;BME280_humidity;BME280_pressure;Samples;Min_cycle;Max_cycle;Signal;HPM_P1;HPM_P2
2023/03/10 00:02:49;;;;;;;66.30;30.10;;;;;;;0.44;100.00;98718.48;213980;1293;138430;-90
2023/03/10 00:07:49;;;;;;;59.90;27.90;;;;;;;0.45;100.00;98708.08;214216;1295;138831;-89
2023/03/10 00:12:50;;;;;;;61.80;27.80;;;;;;;0.46;100.00;98706.92;213948;1291;139059;-89
2023/03/10 00:17:54;;;;;;;67.40;29.60;;;;;;;0.46;100.00;98704.92;213404;1292;139157;-90
2023/03/10 00:22:54;;;;;;;68.20;30.70;;;;;;;0.47;100.00;98695.96;213903;1291;138825;-90
2023/03/10 00:27:55;;;;;;;62.80;29.20;;;;;;;0.49;100.00;98688.42;213309;1291;138751;-89
2023/03/10 00:32:55;;;;;;;69.40;33.50;;;;;;;0.50;100.00;98682.65;213677;1291;138214;-89
2023/03/10 00:37:55;;;;;;;60.20;29.00;;;;;;;0.48;100.00;98677.98;213496;1291;139013;-90
2023/03/10 00:42:58;;;;;;;69.90;30.30;;;;;;;0.50;100.00;98660.77;214075;1292;139833;-89
2023/03/10 00:47:59;;;;;;;69.70;29.10;;;;;;;0.51;100.00;98653.84;213298;1291;139393;-90
2023/03/10 00:52:59;;;;;;;76.60;32.60;;;;;;;0.52;100.00;98641.02;213561;1296;139067;-89
2023/03/10 00:58:00;;;;;;;79.10;34.80;;;;;;;0.52;100.00;98626.59;213897;1291;138527;-89
2023/03/10 01:03:00;;;;;;;78.00;33.80;;;;;;;0.54;100.00;98607.35;214004;1295;138267;-89
2023/03/10 01:08:00;;;;;;;75.10;30.90;;;;;;;0.53;100.00;98598.05;213266;1294;139131;-90
2023/03/10 01:13:01;;;;;;;68.40;29.70;;;;;;;0.53;100.00;98599.52;213609;1296;138846;-90
2023/03/10 01:18:03;;;;;;;69.90;30.20;;;;;;;0.54;100.00;98610.38;213401;1292;139061;-90
2023/03/10 01:23:03;;;;;;;69.10;29.60;;;;;;;0.57;100.00;98600.70;214371;1291;138949;-89
2023/03/10 01:28:04;;;;;;;67.70;30.00;;;;;;;0.58;100.00;98594.52;213637;1291;138397;-88
2023/03/10 01:33:04;;;;;;;61.20;28.40;;;;;;;0.55;100.00;98578.63;213943;1291;138831;-87
2023/03/10 01:38:05;;;;;;;70.40;29.30;;;;;;;0.55;100.00;98574.53;213670;1291;138789;-86
2023/03/10 01:43:19;;;;;;;67.20;30.10;;;;;;;0.54;100.00;98564.60;214224;1289;138544;-87
2023/03/10 01:48:21;;;;;;;70.40;30.20;;;;;;;0.54;100.00;98563.76;213580;1294;139063;-86
2023/03/10 01:53:23;;;;;;;63.80;29.30;;;;;;;0.55;100.00;98552.86;214533;1295;139831;-85
2023/03/10 01:58:28;;;;;;;63.70;27.30;;;;;;;0.55;100.00;98536.80;217145;1290;138895;-87
2023/03/10 02:03:43;;;;;;;62.30;29.90;;;;;;;0.54;100.00;98521.55;213843;1290;139301;-88
2023/03/10 02:08:50;;;;;;;63.60;27.70;;;;;;;0.56;100.00;98504.18;213210;1290;138975;-88
2023/03/10 02:13:52;;;;;;;64.70;28.20;;;;;;;0.56;100.00;98490.33;213756;1294;139118;-89
2023/03/10 02:18:52;;;;;;;65.30;29.40;;;;;;;0.58;100.00;98478.86;213350;1290;139925;-88
2023/03/10 02:24:02;;;;;;;63.20;27.20;;;;;;;0.59;100.00;98467.84;213965;1291;139105;-87
2023/03/10 02:29:07;;;;;;;69.20;29.70;;;;;;;0.58;100.00;98451.50;213394;1293;138952;-86
2023/03/10 02:34:07;;;;;;;62.80;28.80;;;;;;;0.58;100.00;98444.38;214025;1290;97022;-88
2023/03/10 02:39:08;;;;;;;61.90;26.50;;;;;;;0.59;100.00;98442.39;213421;1293;138377;-88
2023/03/10 02:44:12;;;;;;;60.70;26.10;;;;;;;0.60;100.00;98434.29;214441;1295;138394;-87
2023/03/10 02:49:13;;;;;;;77.10;31.80;;;;;;;0.61;100.00;98428.11;213711;1291;140882;-88
2023/03/10 02:54:14;;;;;;;66.80;29.00;;;;;;;0.60;100.00;98407.38;214317;1289;138909;-87
2023/03/10 02:59:15;;;;;;;60.60;27.30;;;;;;;0.61;100.00;98397.35;213691;1289;138997;-87
2023/03/10 03:04:15;;;;;;;57.70;27.80;;;;;;;0.63;100.00;98383.69;214274;1290;96708;-87
2023/03/10 03:09:16;;;;;;;55.90;25.50;;;;;;;0.64;100.00;98371.02;213723;1292;138426;-86
2023/03/10 03:14:16;;;;;;;55.90;25.80;;;;;;;0.64;100.00;98357.02;214191;1294;138926;-86
2023/03/10 03:19:16;;;;;;;59.10;25.30;;;;;;;0.62;100.00;98347.48;213453;1291;139407;-86
2023/03/10 03:24:19;;;;;;;59.50;27.40;;;;;;;0.63;100.00;98337.05;214026;1290;138544;-85
2023/03/10 03:29:20;;;;;;;54.40;24.70;;;;;;;0.63;100.00;98326.55;213518;1291;139395;-86
2023/03/10 03:34:21;;;;;;;49.60;22.30;;;;;;;0.64;100.00;98314.27;214538;1289;96890;-86
2023/03/10 03:39:21;;;;;;;56.60;25.00;;;;;;;0.65;100.00;98308.88;213429;1293;139447;-86
2023/03/10 03:44:21;;;;;;;59.20;24.40;;;;;;;0.67;100.00;98297.15;213861;1290;138289;-85
2023/03/10 03:49:22;;;;;;;57.10;24.90;;;;;;;0.69;100.00;98299.89;213676;1290;141498;-86
2023/03/10 03:54:22;;;;;;;53.00;24.70;;;;;;;0.71;100.00;98288.17;214126;1294;139303;-86
2023/03/10 03:59:23;;;;;;;62.40;26.50;;;;;;;0.72;100.00;98280.60;213570;1293;139139;-87
2023/03/10 04:04:23;;;;;;;59.30;24.80;;;;;;;0.74;100.00;98267.70;214127;1290;97515;-86
2023/03/10 04:09:24;;;;;;;64.50;27.90;;;;;;;0.75;100.00;98255.58;213223;1293;294728;-85
2023/03/10 04:14:24;;;;;;;62.60;27.30;;;;;;;0.76;100.00;98242.15;214139;1291;138706;-86
2023/03/10 04:19:24;;;;;;;58.80;26.00;;;;;;;0.77;100.00;98232.11;213562;1291;140271;-86
2023/03/10 04:24:25;;;;;;;65.50;28.00;;;;;;;0.77;100.00;98218.18;214375;1291;138643;-86
2023/03/10 04:29:26;;;;;;;64.00;27.40;;;;;;;0.79;100.00;98210.09;213593;1294;139495;-87
2023/03/10 04:34:26;;;;;;;64.50;28.70;;;;;;;0.79;100.00;98200.73;214204;1295;96619;-87
2023/03/10 04:39:27;;;;;;;63.70;26.50;;;;;;;0.80;100.00;98192.94;213333;1290;138519;-87
2023/03/10 04:44:27;;;;;;;70.70;30.10;;;;;;;0.81;100.00;98188.77;213909;1294;138594;-87
2023/03/10 04:49:28;;;;;;;81.60;32.00;;;;;;;0.81;100.00;98176.87;213434;1290;139437;-88
2023/03/10 04:54:28;;;;;;;73.00;31.00;;;;;;;0.82;100.00;98170.54;213903;1296;139076;-89
2023/03/10 04:59:29;;;;;;;80.10;31.80;;;;;;;0.84;100.00;98153.15;213295;1290;139199;-89
2023/03/10 05:04:29;;;;;;;80.30;32.30;;;;;;;0.86;100.00;98143.52;214074;1295;96628;-88
2023/03/10 05:09:30;;;;;;;76.00;31.80;;;;;;;0.88;100.00;98142.14;213226;1294;139260;-91
2023/03/10 05:14:30;;;;;;;92.40;36.30;;;;;;;0.91;100.00;98133.22;214064;1290;139418;-92
2023/03/10 05:19:33;;;;;;;96.20;41.80;;;;;;;0.94;100.00;98129.92;215557;1295;138539;-93
2023/03/10 05:24:55;;;;;;;84.40;33.90;;;;;;;0.98;100.00;98116.34;215527;1295;138797;-96
2023/03/10 05:29:56;;;;;;;76.30;32.60;;;;;;;1.01;100.00;98101.53;214853;1295;138402;-92
2023/03/10 05:34:58;;;;;;;75.20;30.20;;;;;;;1.03;100.00;98100.08;214778;1291;137431;-93
2023/03/10 05:39:59;;;;;;;78.80;32.60;;;;;;;1.06;100.00;98092.69;214344;1293;138676;-92
2023/03/10 05:45:00;;;;;;;75.50;31.00;;;;;;;1.09;100.00;98079.34;214589;1290;137236;-94
2023/03/10 05:50:00;;;;;;;78.00;32.90;;;;;;;1.12;100.00;98079.45;213839;1289;138724;-91
2023/03/10 05:55:01;;;;;;;78.90;34.00;;;;;;;1.16;100.00;98074.52;214224;1295;139102;-92
2023/03/10 06:00:09;;;;;;;80.40;34.60;;;;;;;1.20;100.00;98071.02;214477;1296;138799;-95
2023/03/10 06:05:30;;;;;;;84.50;33.40;;;;;;;1.24;100.00;98064.32;215417;1292;139409;-93
2023/03/10 06:10:31;;;;;;;87.40;34.80;;;;;;;1.27;100.00;98055.45;216229;1293;138829;-94
2023/03/10 06:20:44;;;;;;;85.80;36.20;;;;;;;1.34;100.00;98037.40;215773;1291;107614;-91
2023/03/10 06:26:01;;;;;;;90.00;37.70;;;;;;;1.37;100.00;98031.54;215596;1288;138525;-93
2023/03/10 06:31:05;;;;;;;79.10;32.50;;;;;;;1.41;100.00;98023.14;215438;1291;139043;-93
2023/03/10 06:36:08;;;;;;;85.80;34.30;;;;;;;1.44;100.00;98012.55;214869;1291;138477;-92
2023/03/10 06:41:09;;;;;;;86.60;39.60;;;;;;;1.49;100.00;98015.14;215341;1292;138836;-92
2023/03/10 06:46:33;;;;;;;82.50;32.30;;;;;;;1.51;100.00;98014.63;215168;1290;140224;-94
2023/03/10 06:51:38;;;;;;;97.50;37.20;;;;;;;1.56;100.00;98006.14;215337;1292;138202;-91
2023/03/10 06:56:40;;;;;;;91.80;40.40;;;;;;;1.60;100.00;98002.68;214859;1291;140157;-91
2023/03/10 07:01:42;;;;;;;86.00;37.50;;;;;;;1.66;100.00;97999.17;215211;1292;138382;-92
2023/03/10 07:06:42;;;;;;;100.10;42.10;;;;;;;1.72;100.00;97998.42;214769;1294;139193;-92
2023/03/10 07:11:43;;;;;;;96.70;42.30;;;;;;;1.79;100.00;97996.77;215207;1291;139038;-93
2023/03/10 07:17:30;;;;;;;103.60;41.70;;;;;;;1.88;100.00;97993.13;214746;1292;139281;-93
2023/03/10 07:22:59;;;;;;;;;;;;;;;;;;;;;
2023/03/10 07:33:33;;;;;;;95.00;39.80;;;;;;;2.15;100.00;97968.30;214323;1294;138178;-88
2023/03/10 07:38:34;;;;;;;89.20;37.30;;;;;;;2.24;100.00;97963.84;213698;1294;138984;-89
2023/03/10 07:43:35;;;;;;;92.90;39.90;;;;;;;2.37;100.00;97960.72;214439;1294;140289;-88
2023/03/10 07:48:35;;;;;;;85.20;34.80;;;;;;;2.43;100.00;97963.85;213989;1294;138782;-89
2023/03/10 07:53:36;;;;;;;95.50;36.40;;;;;;;2.53;100.00;97963.02;214444;1290;139222;-89
2023/03/10 07:58:37;;;;;;;75.70;34.70;;;;;;;2.62;100.00;97963.13;214024;1291;139887;-89
2023/03/10 08:03:38;;;;;;;85.50;36.50;;;;;;;2.73;100.00;97966.80;214416;1292;139807;-88
2023/03/10 08:08:38;;;;;;;83.00;36.00;;;;;;;2.79;100.00;97970.86;213825;1292;139026;-89
2023/03/10 08:13:39;;;;;;;75.40;33.30;;;;;;;2.88;100.00;97969.48;214318;1294;139607;-89
2023/03/10 08:18:40;;;;;;;68.30;29.10;;;;;;;3.01;100.00;97963.98;213840;1291;139404;-90
2023/03/10 08:23:41;;;;;;;63.70;26.90;;;;;;;3.19;100.00;97962.52;214332;1292;139077;-89
2023/03/10 08:28:42;;;;;;;65.80;27.60;;;;;;;3.38;100.00;97963.23;214145;1292;138620;-90
2023/03/10 08:33:43;;;;;;;63.70;26.70;;;;;;;3.71;100.00;97965.75;214206;1293;138691;-88
2023/03/10 08:38:44;;;;;;;62.60;27.00;;;;;;;4.05;100.00;97966.15;213757;1292;139481;-87
2023/03/10 08:43:45;;;;;;;69.40;28.20;;;;;;;4.31;100.00;97963.65;214425;1291;138694;-87
2023/03/10 08:48:45;;;;;;;58.80;25.80;;;;;;;4.63;100.00;97953.23;214200;1289;139622;-87
2023/03/10 08:53:47;;;;;;;50.80;21.60;;;;;;;4.91;100.00;97958.77;214408;1294;139868;-88
2023/03/10 08:58:48;;;;;;;48.10;19.80;;;;;;;5.14;100.00;97953.23;213726;1291;138927;-89
2023/03/10 09:03:48;;;;;;;46.60;20.00;;;;;;;5.33;100.00;97949.96;214281;1293;96791;-87
2023/03/10 09:08:49;;;;;;;45.30;22.20;;;;;;;5.58;100.00;97947.58;213681;1294;139238;-86
2023/03/10 09:13:50;;;;;;;38.90;20.20;;;;;;;5.85;100.00;97949.29;214242;1292;139659;-87
2023/03/10 09:18:51;;;;;;;47.90;22.40;;;;;;;6.10;100.00;97948.87;213865;1292;139072;-85
2023/03/10 09:23:52;;;;;;;64.50;25.60;;;;;;;6.34;100.00;97945.63;214472;1291;139451;-84
2023/03/10 09:28:53;;;;;;;55.80;20.40;;;;;;;6.55;100.00;97949.73;213928;1294;139500;-86
2023/03/10 09:33:53;;;;;;;63.40;25.90;;;;;;;6.71;100.00;97942.11;214508;1294;96670;-83
2023/03/10 09:38:55;;;;;;;54.10;21.10;;;;;;;6.90;100.00;97947.93;214526;1292;139244;-84
2023/03/10 09:44:22;;;;;;;30.30;14.10;;;;;;;7.12;100.00;97948.09;214294;1290;139397;-84
2023/03/10 09:49:22;;;;;;;31.20;14.90;;;;;;;7.26;100.00;97947.31;213817;1294;140024;-87
2023/03/10 09:54:51;;;;;;;30.70;12.10;;;;;;;7.40;100.00;97946.33;214314;1294;138538;-87
2023/03/10 09:59:57;;;;;;;25.40;10.50;;;;;;;7.56;100.00;97940.41;213842;1294;139167;-86
2023/03/10 10:05:02;;;;;;;23.50;9.70;;;;;;;7.69;100.00;97937.45;214302;1294;139075;-87
2023/03/10 10:10:03;;;;;;;29.20;9.30;;;;;;;7.81;100.00;97936.55;213711;1294;138598;-86
2023/03/10 10:15:17;;;;;;;24.80;8.60;;;;;;;7.94;100.00;97934.20;214549;1290;138345;-87
2023/03/10 10:20:44;;;;;;;20.80;8.40;;;;;;;8.12;100.00;97933.20;214132;1294;138308;-88
2023/03/10 10:25:45;;;;;;;35.50;11.60;;;;;;;8.31;100.00;97929.13;214643;1295;138522;-87
2023/03/10 10:30:45;;;;;;;24.10;10.00;;;;;;;8.48;100.00;97932.77;216116;1287;140859;-86
2023/03/10 10:36:01;;;;;;;21.90;8.60;;;;;;;8.64;100.00;97929.38;216251;1292;138511;-86
2023/03/10 10:41:15;;;;;;;18.30;7.10;;;;;;;8.78;100.00;97920.61;215252;1289;138635;-88
2023/03/10 10:46:24;;;;;;;13.90;6.20;;;;;;;8.91;100.00;97925.57;216190;1289;138822;-87
2023/03/10 10:51:28;;;;;;;15.60;5.80;;;;;;;9.07;100.00;97911.80;217563;1289;139334;-85
2023/03/10 10:56:29;;;;;;;16.80;6.70;;;;;;;9.28;100.00;97909.50;215881;1290;138401;-85
2023/03/10 11:02:03;;;;;;;20.40;6.30;;;;;;;9.43;100.00;97912.95;215028;1291;138369;-85
2023/03/10 11:07:31;;;;;;;14.50;5.60;;;;;;;9.60;100.00;97910.58;214395;1292;139377;-85
2023/03/10 11:12:50;;;;;;;14.60;5.30;;;;;;;9.74;100.00;97910.53;214982;1289;139029;-87
2023/03/10 11:18:24;;;;;;;21.40;8.10;;;;;;;9.80;100.00;97913.73;214527;1288;139208;-86
2023/03/10 11:23:33;;;;;;;19.80;8.50;;;;;;;9.89;100.00;97908.34;214842;1289;138809;-86
2023/03/10 11:28:36;;;;;;;14.90;6.10;;;;;;;10.00;100.00;97907.09;214618;1289;139894;-86
2023/03/10 11:33:44;;;;;;;13.20;4.60;;;;;;;10.10;100.00;97905.83;215521;1289;140350;-83
2023/03/10 11:38:48;;;;;;;12.20;4.40;;;;;;;10.24;100.00;97904.11;214971;1288;139451;-85
2023/03/10 11:43:57;;;;;;;9.50;3.10;;;;;;;10.37;100.00;97903.40;215358;1294;138835;-85
2023/03/10 11:49:06;;;;;;;10.50;4.00;;;;;;;10.48;100.00;97900.73;215399;1289;140186;-86
2023/03/10 11:54:12;;;;;;;7.40;3.20;;;;;;;10.56;100.00;97898.32;215904;1289;138697;-86
2023/03/10 11:59:30;;;;;;;8.20;3.00;;;;;;;10.66;100.00;97900.20;215588;1291;139523;-85
2023/03/10 12:05:06;;;;;;;8.00;3.00;;;;;;;10.71;100.00;97902.26;216042;1289;110701;-85
2023/03/10 12:10:10;;;;;;;9.80;3.50;;;;;;;10.73;100.00;97903.05;215665;1288;140100;-85
2023/03/10 12:15:13;;;;;;;9.80;3.40;;;;;;;10.79;100.00;97900.68;216184;1288;138762;-85
2023/03/10 12:20:15;;;;;;;10.50;4.20;;;;;;;10.85;100.00;97898.78;215783;1289;140262;-85
2023/03/10 12:25:28;;;;;;;8.90;3.60;;;;;;;10.94;100.00;97894.17;217039;1289;140910;-85
2023/03/10 12:30:50;;;;;;;9.20;4.10;;;;;;;11.07;100.00;97887.77;217037;1288;140245;-87
2023/03/10 12:35:54;;;;;;;9.50;3.50;;;;;;;11.25;100.00;97884.06;215903;1288;138660;-87
2023/03/10 12:40:56;;;;;;;10.90;4.10;;;;;;;11.39;100.00;97884.45;214570;1293;139215;-86
2023/03/10 12:45:59;;;;;;;10.20;4.10;;;;;;;11.51;100.00;97885.39;214998;1294;139405;-85
2023/03/10 12:51:07;;;;;;;9.30;3.20;;;;;;;11.61;100.00;97887.60;215026;1291;138537;-88
2023/03/10 12:56:11;;;;;;;7.40;3.40;;;;;;;11.70;100.00;97898.58;214478;1288;138839;-87
2023/03/10 13:01:16;;;;;;;10.00;3.10;;;;;;;11.75;100.00;97895.61;215088;1294;138819;-88
2023/03/10 13:06:36;;;;;;;10.20;3.90;;;;;;;11.81;100.00;97897.80;214836;1291;139356;-88
2023/03/10 13:11:41;;;;;;;10.50;3.70;;;;;;;11.82;100.00;97892.63;214590;1288;138865;-88
2023/03/10 13:16:53;;;;;;;8.50;3.50;;;;;;;11.84;100.00;97892.42;213710;1289;139642;-87
2023/03/10 13:21:54;;;;;;;9.30;3.20;;;;;;;11.82;100.00;97890.17;214119;1289;138290;-89
2023/03/10 13:27:12;;;;;;;7.20;3.30;;;;;;;11.84;100.00;97892.70;214050;1289;138585;-88
2023/03/10 13:32:18;;;;;;;9.30;3.90;;;;;;;11.89;100.00;97887.99;215459;1289;138590;-88
2023/03/10 13:37:18;;;;;;;9.50;4.30;;;;;;;11.94;100.00;97883.32;215423;1290;138710;-88
2023/03/10 13:42:25;;;;;;;8.80;4.00;;;;;;;11.97;100.00;97890.69;215747;1288;138558;-91
2023/03/10 13:47:27;;;;;;;10.30;4.10;;;;;;;12.01;100.00;97892.30;215155;1289;138631;-92
2023/03/10 13:52:30;;;;;;;11.40;4.00;;;;;;;12.00;100.00;97890.73;215844;1289;97183;-91
2023/03/10 13:57:35;;;;;;;8.20;3.80;;;;;;;11.97;100.00;97890.91;215139;1289;139976;-91
2023/03/10 14:02:38;;;;;;;10.20;4.50;;;;;;;11.95;100.00;97895.33;216204;1291;138887;-91
2023/03/10 14:07:39;;;;;;;8.90;3.00;;;;;;;11.95;100.00;97893.34;217322;1289;139595;-91
2023/03/10 14:12:41;;;;;;;8.90;3.80;;;;;;;11.92;100.00;97890.29;216834;1288;139714;-88
2023/03/10 14:17:42;;;;;;;10.40;4.50;;;;;;;11.97;100.00;97889.02;214502;1294;139390;-90
2023/03/10 14:22:43;;;;;;;13.80;6.40;;;;;;;11.96;100.00;97893.17;214666;1288;96611;-89
2023/03/10 14:27:50;;;;;;;19.00;9.50;;;;;;;11.92;100.00;97890.10;213818;1288;139409;-88
2023/03/10 14:32:52;;;;;;;13.70;6.70;;;;;;;11.86;100.00;97884.94;214302;1291;139256;-89
2023/03/10 14:37:53;;;;;;;15.20;7.50;;;;;;;11.80;100.00;97886.73;213868;1288;139645;-89
2023/03/10 14:42:56;;;;;;;13.30;6.00;;;;;;;11.76;100.00;97887.02;214601;1290;138817;-89
2023/03/10 14:48:00;;;;;;;16.80;7.10;;;;;;;11.72;100.00;97879.17;213882;1291;139487;-88
2023/03/10 14:53:01;;;;;;;12.00;6.10;;;;;;;11.71;100.00;97873.74;214357;1293;96467;-88
2023/03/10 14:58:03;;;;;;;12.70;6.40;;;;;;;11.69;100.00;97876.64;214350;1292;139310;-90
2023/03/10 15:03:04;;;;;;;16.60;8.60;;;;;;;11.67;100.00;97865.81;214850;1291;139602;-90
2023/03/10 15:08:04;;;;;;;17.30;7.50;;;;;;;11.67;100.00;97863.25;214966;1292;139657;-88
2023/03/10 15:13:05;;;;;;;13.80;7.30;;;;;;;11.63;100.00;97863.21;215670;1293;139500;-88
2023/03/10 15:18:06;;;;;;;17.90;7.50;;;;;;;11.60;100.00;97857.09;215818;1289;139521;-89
2023/03/10 15:23:07;;;;;;;17.50;7.50;;;;;;;11.57;100.00;97857.98;216184;1291;139487;-89
2023/03/10 15:28:09;;;;;;;16.00;6.40;;;;;;;11.55;100.00;97853.71;215522;1289;139359;-88
2023/03/10 15:33:09;;;;;;;18.10;7.20;;;;;;;11.53;100.00;97853.30;215783;1289;138599;-89
2023/03/10 15:38:13;;;;;;;14.40;6.90;;;;;;;11.48;100.00;97856.52;214968;1291;141144;-89
2023/03/10 15:43:14;;;;;;;14.70;6.50;;;;;;;11.44;100.00;97855.35;215567;1289;139927;-89
2023/03/10 15:48:15;;;;;;;17.60;8.50;;;;;;;11.37;100.00;97852.58;214975;1288;138849;-88
2023/03/10 15:53:16;;;;;;;20.10;10.60;;;;;;;11.32;100.00;97856.94;215513;1289;139040;-89
2023/03/10 15:58:17;;;;;;;16.30;8.10;;;;;;;11.26;100.00;97863.34;215469;1291;138902;-89
2023/03/10 16:03:18;;;;;;;16.30;9.70;;;;;;;11.17;100.00;97872.98;215643;1289;138536;-89
2023/03/10 16:08:18;;;;;;;26.30;16.20;;;;;;;11.11;100.00;97880.48;215073;1289;140239;-87
2023/03/10 16:13:20;;;;;;;21.50;13.20;;;;;;;10.94;100.00;97880.55;215125;1289;309052;-88
2023/03/10 16:18:23;;;;;;;30.10;19.40;;;;;;;10.76;100.00;97884.75;214782;1291;139571;-88
2023/03/10 16:23:25;;;;;;;26.90;17.20;;;;;;;10.58;100.00;97883.41;215826;1289;139890;-88
2023/03/10 16:28:26;;;;;;;22.60;14.40;;;;;;;10.43;100.00;97884.39;215998;1289;139170;-89
2023/03/10 16:33:28;;;;;;;24.50;15.20;;;;;;;10.32;100.00;97890.13;216174;1289;139894;-89
2023/03/10 16:38:28;;;;;;;21.60;13.30;;;;;;;10.09;100.00;97897.42;215204;1291;140090;-89
2023/03/10 16:43:31;;;;;;;31.50;22.90;;;;;;;9.98;100.00;97915.61;215352;1291;139812;-89
2023/03/10 16:48:32;;;;;;;34.20;24.70;;;;;;;9.90;100.00;97916.01;214864;1289;139610;-89
2023/03/10 16:53:33;;;;;;;23.40;17.30;;;;;;;9.74;100.00;97910.05;215329;1291;139710;-88
2023/03/10 16:58:33;;;;;;;20.70;11.30;;;;;;;9.60;100.00;97899.51;214982;1290;139582;-88
2023/03/10 17:03:38;;;;;;;21.60;12.30;;;;;;;9.50;100.00;97887.68;215355;1288;139161;-88
2023/03/10 17:08:39;;;;;;;24.50;14.90;;;;;;;9.32;100.00;97877.86;214698;1289;139633;-89
2023/03/10 17:13:40;;;;;;;24.90;15.10;;;;;;;9.16;100.00;97873.02;215323;1289;139172;-89
2023/03/10 17:18:41;;;;;;;21.80;13.20;;;;;;;9.06;100.00;97875.29;214939;1291;139160;-89
2023/03/10 17:23:42;;;;;;;35.30;20.00;;;;;;;8.99;100.00;97873.66;215473;1289;139195;-89
2023/03/10 17:28:49;;;;;;;37.90;19.90;;;;;;;8.93;100.00;97864.80;215183;1288;138975;-89
2023/03/10 17:33:49;;;;;;;33.40;16.70;;;;;;;8.81;100.00;97855.66;215487;1290;138848;-88
2023/03/10 17:38:55;;;;;;;34.20;20.20;;;;;;;8.71;100.00;97858.09;215044;1289;139306;-88
2023/03/10 17:43:55;;;;;;;34.60;21.90;;;;;;;8.60;100.00;97853.56;215462;1288;139071;-88
2023/03/10 17:48:56;;;;;;;37.80;22.00;;;;;;;8.56;100.00;97849.65;214849;1291;139077;-88
2023/03/10 17:53:59;;;;;;;38.50;22.40;;;;;;;8.54;100.00;97846.89;215466;1289;138580;-88
2023/03/10 17:59:00;;;;;;;30.10;18.70;;;;;;;8.49;100.00;97844.26;214987;1289;138480;-88
2023/03/10 18:04:00;;;;;;;32.60;21.70;;;;;;;8.50;100.00;97846.05;215400;1288;138823;-88
2023/03/10 18:09:04;;;;;;;31.90;18.80;;;;;;;8.42;100.00;97837.13;214766;1289;139382;-88
2023/03/10 18:14:05;;;;;;;30.30;19.10;;;;;;;8.33;100.00;97835.74;215370;1291;139982;-88
2023/03/10 18:19:07;;;;;;;29.10;16.30;;;;;;;8.25;100.00;97832.18;214731;1291;139945;-88
2023/03/10 18:24:11;;;;;;;36.70;19.90;;;;;;;8.10;100.00;97819.48;215410;1288;139019;-88
2023/03/10 18:29:12;;;;;;;35.50;19.40;;;;;;;7.92;100.00;97817.97;214710;1292;139373;-88
2023/03/10 18:34:14;;;;;;;29.80;16.40;;;;;;;7.82;100.00;97823.09;215342;1290;96523;-88
2023/03/10 18:39:15;;;;;;;33.90;18.20;;;;;;;7.78;100.00;97819.83;214772;1293;138768;-88
2023/03/10 18:44:15;;;;;;;28.40;17.30;;;;;;;7.78;100.00;97820.75;215222;1292;139553;-88
2023/03/10 18:49:16;;;;;;;36.70;19.80;;;;;;;7.76;100.00;97820.88;214752;1291;139400;-88
2023/03/10 18:54:16;;;;;;;33.10;18.30;;;;;;;7.71;100.00;97808.61;215324;1289;139130;-88
2023/03/10 18:59:17;;;;;;;37.10;19.20;;;;;;;7.67;100.00;97805.17;214828;1292;139209;-88
2023/03/10 19:04:18;;;;;;;77.00;37.10;;;;;;;7.60;100.00;97798.80;215361;1291;96686;-88
2023/03/10 19:09:19;;;;;;;130.50;58.40;;;;;;;7.50;100.00;97787.67;214641;1289;139890;-88
2023/03/10 19:14:19;;;;;;;81.10;40.50;;;;;;;7.38;100.00;97776.89;215175;1294;139790;-88
2023/03/10 19:19:20;;;;;;;47.30;25.40;;;;;;;7.29;100.00;97755.17;214823;1289;139448;-89
2023/03/10 19:24:20;;;;;;;60.70;30.70;;;;;;;7.25;100.00;97750.86;215265;1289;139220;-88
2023/03/10 19:29:21;;;;;;;36.00;19.70;;;;;;;7.24;100.00;97769.10;214603;1289;139300;-88
2023/03/10 19:34:22;;;;;;;34.90;19.50;;;;;;;7.27;100.00;97792.58;215115;1291;108492;-87
2023/03/10 19:39:22;;;;;;;39.30;20.00;;;;;;;7.32;100.00;97805.98;214641;1289;139540;-88
2023/03/10 19:44:25;;;;;;;44.60;24.40;;;;;;;7.33;100.00;97813.48;214869;1288;139295;-87
2023/03/10 19:49:26;;;;;;;49.90;27.60;;;;;;;7.34;100.00;97824.40;214426;1292;139045;-86
2023/03/10 19:54:26;;;;;;;42.50;24.10;;;;;;;7.33;100.00;97819.34;214917;1291;139945;-88
2023/03/10 19:59:27;;;;;;;37.00;21.40;;;;;;;7.30;100.00;97801.27;214427;1291;139724;-87
2023/03/10 20:04:30;;;;;;;37.50;22.40;;;;;;;7.31;100.00;97797.19;215182;1288;96689;-87
2023/03/10 20:09:31;;;;;;;43.60;25.60;;;;;;;7.32;100.00;97788.23;214571;1291;138171;-87
2023/03/10 20:14:32;;;;;;;42.00;25.00;;;;;;;7.32;100.00;97781.30;214905;1289;139053;-88
2023/03/10 20:19:32;;;;;;;38.90;25.30;;;;;;;7.33;100.00;97780.48;214456;1289;139966;-88
2023/03/10 20:24:33;;;;;;;40.80;25.00;;;;;;;7.34;100.00;97785.09;215118;1292;139411;-87
2023/03/10 20:29:34;;;;;;;36.30;21.20;;;;;;;7.31;100.00;97766.07;214522;1289;138528;-87
2023/03/10 20:34:34;;;;;;;48.70;24.60;;;;;;;7.28;100.00;97747.07;215277;1288;96609;-86
2023/03/10 20:39:35;;;;;;;38.50;22.30;;;;;;;7.25;100.00;97725.32;214762;1289;139509;-86
2023/03/10 20:44:36;;;;;;;38.00;20.40;;;;;;;7.25;100.00;97719.39;215287;1289;138909;-86
2023/03/10 20:49:37;;;;;;;35.70;20.30;;;;;;;7.24;100.00;97723.92;214686;1291;139720;-86
2023/03/10 20:54:37;;;;;;;37.60;20.60;;;;;;;7.24;100.00;97723.39;215208;1292;138561;-86
2023/03/10 20:59:38;;;;;;;35.70;20.00;;;;;;;7.21;100.00;97722.41;214623;1289;139306;-86
2023/03/10 21:04:39;;;;;;;44.30;26.00;;;;;;;7.23;100.00;97733.25;215240;1289;96649;-87
2023/03/10 21:09:40;;;;;;;51.90;27.80;;;;;;;7.22;100.00;97737.16;214874;1289;138284;-87
2023/03/10 21:14:41;;;;;;;47.20;26.60;;;;;;;7.20;100.00;97739.39;215126;1291;139837;-89
2023/03/10 21:19:41;;;;;;;51.70;28.60;;;;;;;7.14;100.00;97731.86;214498;1289;138500;-90
2023/03/10 21:24:43;;;;;;;51.40;27.60;;;;;;;7.13;100.00;97730.63;215025;1288;139508;-89
2023/03/10 21:29:44;;;;;;;54.80;30.80;;;;;;;7.10;100.00;97729.98;214562;1289;139141;-89
2023/03/10 21:34:45;;;;;;;63.70;36.50;;;;;;;7.10;100.00;97735.84;215288;1290;96567;-89
2023/03/10 21:39:45;;;;;;;68.60;37.20;;;;;;;7.06;100.00;97726.53;214615;1292;139873;-90
2023/03/10 21:44:47;;;;;;;60.00;34.50;;;;;;;7.01;100.00;97716.09;215185;1291;138880;-91
2023/03/10 21:49:48;;;;;;;60.00;32.40;;;;;;;7.02;100.00;97713.17;214428;1294;138830;-90
2023/03/10 21:54:48;;;;;;;67.20;34.80;;;;;;;7.05;100.00;97709.69;215150;1291;138527;-90
2023/03/10 21:59:49;;;;;;;58.70;32.60;;;;;;;7.07;100.00;97712.06;214532;1291;138536;-90
2023/03/10 22:04:49;;;;;;;53.20;29.50;;;;;;;7.08;100.00;97714.00;215213;1289;97448;-90
2023/03/10 22:09:50;;;;;;;57.00;31.60;;;;;;;7.06;100.00;97710.36;214748;1289;138444;-87
2023/03/10 22:14:55;;;;;;;51.60;30.60;;;;;;;7.07;100.00;97710.89;215259;1292;138340;-87
2023/03/10 22:19:55;;;;;;;47.90;27.20;;;;;;;7.07;100.00;97706.98;214548;1294;138740;-88
2023/03/10 22:24:56;;;;;;;49.40;29.60;;;;;;;7.09;100.00;97706.26;215109;1291;139589;-86
2023/03/10 22:29:59;;;;;;;56.50;31.30;;;;;;;7.12;100.00;97696.66;214490;1293;138942;-87
2023/03/10 22:35:00;;;;;;;56.30;32.30;;;;;;;7.14;100.00;97693.88;214947;1295;96591;-88
2023/03/10 22:40:00;;;;;;;52.30;30.10;;;;;;;7.15;100.00;97697.15;214438;1289;139226;-87
2023/03/10 22:45:01;;;;;;;48.50;26.30;;;;;;;7.15;100.00;97696.76;215098;1294;138326;-87
2023/03/10 22:50:02;;;;;;;43.40;23.90;;;;;;;7.17;100.00;97688.29;214467;1294;139262;-87
2023/03/10 22:55:03;;;;;;;41.50;24.80;;;;;;;7.16;100.00;97684.79;214900;1294;138779;-86
2023/03/10 23:00:07;;;;;;;38.10;23.30;;;;;;;7.15;100.00;97683.86;214493;1289;139314;-88